Time;durP1;ratioP1;P1;durP2;ratioP2;P2;SDS_P1;SDS_P2;PMS_P1;PMS_P2;Temp;Humidity;BMP_temperature;BMP_pressure;BME280_temperature;BME280_humidity;BME280_pressure;Samples;Min_cycle;Max_cycle;Signal;HPM_P1;HPM_P2
2022/03/15 00:00:23;;;;;;;24.73;15.48;;;9.40;97.10;;;;;;6115789;23;20115;-85
2022/03/15 00:02:49;;;;;;;28.15;15.20;;;9.30;97.10;;;;;;6160978;23;20009;-86
2022/03/15 00:05:18;;;;;;;28.92;13.77;;;9.30;97.10;;;;;;6160423;23;20185;-85
2022/03/15 00:07:44;;;;;;;23.45;13.88;;;9.30;97.10;;;;;;6159283;23;20009;-85
2022/03/15 00:10:12;;;;;;;29.65;15.18;;;9.30;97.20;;;;;;6158806;23;20046;-85
2022/03/15 00:12:39;;;;;;;24.00;14.43;;;9.20;97.20;;;;;;6159070;23;20079;-85
2022/03/15 00:15:08;;;;;;;24.25;13.80;;;9.20;97.20;;;;;;6185171;23;20043;-85
2022/03/15 00:17:35;;;;;;;20.80;13.85;;;9.20;97.30;;;;;;6158134;23;20035;-85
2022/03/15 00:20:06;;;;;;;22.90;13.95;;;9.20;97.30;;;;;;6158226;23;20001;-85
2022/03/15 00:22:34;;;;;;;22.40;14.18;;;9.20;97.40;;;;;;6184190;23;20084;-85
2022/03/15 00:25:02;;;;;;;24.52;14.18;;;9.10;97.40;;;;;;6110257;23;20005;-85
2022/03/15 00:27:27;;;;;;;22.55;13.57;;;9.10;97.50;;;;;;6157275;23;20009;-85
2022/03/15 00:29:53;;;;;;;23.27;14.38;;;9.10;97.50;;;;;;6158742;23;20092;-84
2022/03/15 00:32:20;;;;;;;26.38;14.73;;;9.10;97.60;;;;;;6133302;23;20076;-85
2022/03/15 00:34:47;;;;;;;26.23;14.60;;;9.10;97.70;;;;;;6109961;23;20040;-84
2022/03/15 00:37:13;;;;;;;24.17;14.55;;;9.00;97.70;;;;;;6157997;23;20013;-84
2022/03/15 00:39:39;;;;;;;26.23;14.68;;;9.00;97.80;;;;;;6158271;23;20005;-85
2022/03/15 00:42:05;;;;;;;24.92;16.05;;;9.00;97.90;;;;;;6133573;23;20404;-84
2022/03/15 00:44:30;;;;;;;22.85;14.63;;;9.00;98.00;;;;;;6132883;23;20001;-84
2022/03/15 00:46:56;;;;;;;27.42;15.02;;;9.00;98.00;;;;;;6108700;23;20075;-86
2022/03/15 00:49:23;;;;;;;28.67;14.98;;;9.00;98.00;;;;;;6133420;23;20438;-85
2022/03/15 00:51:49;;;;;;;23.25;14.32;;;8.90;98.00;;;;;;6134236;23;20045;-84
2022/03/15 00:54:15;;;;;;;23.65;14.77;;;8.90;98.00;;;;;;6158156;23;19997;-85
2022/03/15 00:56:40;;;;;;;21.95;13.35;;;8.90;98.10;;;;;;6108820;23;20012;-85
2022/03/15 00:59:07;;;;;;;21.30;13.40;;;8.90;98.10;;;;;;6133780;23;20422;-85
2022/03/15 01:01:32;;;;;;;22.45;13.75;;;8.80;98.10;;;;;;6132727;23;20023;-85
2022/03/15 01:03:58;;;;;;;22.80;14.95;;;8.80;98.10;;;;;;6134288;23;20001;-85
2022/03/15 01:06:24;;;;;;;21.80;13.98;;;8.80;98.10;;;;;;6133634;23;20107;-84
2022/03/15 01:08:49;;;;;;;23.50;14.05;;;8.80;98.20;;;;;;6157079;23;20016;-85
2022/03/15 01:11:15;;;;;;;17.88;12.27;;;8.80;98.20;;;;;;6133431;23;20012;-85
2022/03/15 01:13:41;;;;;;;20.95;13.68;;;8.70;98.20;;;;;;6157051;23;20005;-85
2022/03/15 01:16:06;;;;;;;21.20;13.60;;;8.70;98.30;;;;;;6133081;23;20092;-85
2022/03/15 01:18:33;;;;;;;21.95;14.40;;;8.70;98.40;;;;;;6157930;23;20494;-85
2022/03/15 01:20:59;;;;;;;26.13;15.30;;;8.70;98.60;;;;;;6134369;23;20005;-84
2022/03/15 01:23:24;;;;;;;26.80;14.70;;;8.70;98.70;;;;;;6133100;23;20442;-85
2022/03/15 01:25:50;;;;;;;26.70;16.33;;;8.70;98.90;;;;;;6157298;23;20065;-84
2022/03/15 01:28:16;;;;;;;30.17;15.70;;;8.60;99.00;;;;;;6134061;23;20506;-84
2022/03/15 01:30:42;;;;;;;30.60;17.05;;;8.70;99.20;;;;;;6163255;23;20009;-85
2022/03/15 01:33:07;;;;;;;29.60;17.30;;;8.60;99.30;;;;;;6159905;23;20084;-84
2022/03/15 01:35:33;;;;;;;30.60;18.15;;;8.60;99.40;;;;;;6132461;23;20012;-84
2022/03/15 01:37:59;;;;;;;33.17;17.85;;;8.60;99.50;;;;;;6157298;23;20016;-85
2022/03/15 01:40:25;;;;;;;33.28;17.88;;;8.60;99.70;;;;;;6132589;23;20005;-84
2022/03/15 01:42:50;;;;;;;27.83;17.70;;;8.60;99.70;;;;;;6132301;23;20020;-85
2022/03/15 01:45:16;;;;;;;30.85;18.38;;;8.60;99.80;;;;;;6132518;23;20240;-84
2022/03/15 01:47:43;;;;;;;30.70;17.77;;;8.60;99.90;;;;;;6132555;23;20006;-85
2022/03/15 01:50:09;;;;;;;27.42;18.05;;;8.60;99.90;;;;;;6157480;23;20335;-85
2022/03/15 01:52:35;;;;;;;30.58;18.02;;;8.60;99.90;;;;;;6157231;23;20004;-85
2022/03/15 01:55:01;;;;;;;29.55;17.77;;;8.60;99.90;;;;;;6158143;23;20108;-85
2022/03/15 01:57:27;;;;;;;32.60;19.50;;;8.60;99.90;;;;;;6133178;23;20096;-84
2022/03/15 01:59:53;;;;;;;29.45;17.77;;;8.60;99.90;;;;;;6157634;23;20035;-85
2022/03/15 02:02:19;;;;;;;30.63;18.80;;;8.60;99.90;;;;;;6127972;23;20064;-85
2022/03/15 02:04:44;;;;;;;27.20;17.90;;;8.60;99.90;;;;;;6152815;23;20067;-85
2022/03/15 02:07:15;;;;;;;32.35;19.05;;;8.60;99.90;;;;;;6128512;23;20005;-83
2022/03/15 02:09:41;;;;;;;33.03;19.45;;;8.60;99.90;;;;;;6153775;23;19997;-84
2022/03/15 02:12:07;;;;;;;27.42;18.67;;;8.60;99.90;;;;;;6128253;23;20064;-84
2022/03/15 02:14:34;;;;;;;29.58;18.08;;;8.60;99.90;;;;;;6126179;23;20100;-85
2022/03/15 02:17:00;;;;;;;27.80;18.52;;;8.60;99.90;;;;;;6152328;23;20010;-85
2022/03/15 02:19:29;;;;;;;30.30;18.85;;;8.60;99.90;;;;;;6127975;23;20053;-85
2022/03/15 02:21:58;;;;;;;31.33;18.33;;;8.70;99.90;;;;;;6130560;23;20389;-84
2022/03/15 02:24:24;;;;;;;24.35;16.92;;;8.70;99.90;;;;;;6154797;23;20002;-84
2022/03/15 02:26:51;;;;;;;30.27;17.85;;;8.70;99.90;;;;;;6129548;23;20010;-84
2022/03/15 02:29:18;;;;;;;31.80;19.02;;;8.70;99.90;;;;;;6129869;23;20052;-85
2022/03/15 02:31:44;;;;;;;30.38;17.90;;;8.70;99.90;;;;;;6129330;23;20416;-83
2022/03/15 02:34:10;;;;;;;30.45;19.08;;;8.70;99.90;;;;;;6155645;23;20013;-85
2022/03/15 02:36:35;;;;;;;30.70;17.67;;;8.70;99.90;;;;;;6130021;23;20013;-84
2022/03/15 02:39:01;;;;;;;30.08;18.20;;;8.70;99.90;;;;;;6153938;23;20028;-85
2022/03/15 02:41:27;;;;;;;33.42;18.77;;;8.70;99.90;;;;;;6154052;23;20388;-85
2022/03/15 02:43:56;;;;;;;34.33;19.42;;;8.60;99.90;;;;;;6129627;23;20006;-85
2022/03/15 02:46:27;;;;;;;28.02;17.90;;;8.60;99.90;;;;;;6129825;23;20025;-84
2022/03/15 02:48:52;;;;;;;28.75;17.95;;;8.60;99.90;;;;;;6154859;23;20012;-83
2022/03/15 02:51:19;;;;;;;29.02;17.58;;;8.60;99.90;;;;;;6154348;23;20005;-85
2022/03/15 02:53:46;;;;;;;27.05;17.95;;;8.60;99.90;;;;;;6153943;23;20006;-85
2022/03/15 02:56:12;;;;;;;40.10;18.15;;;8.60;99.90;;;;;;6130210;23;20368;-85
2022/03/15 02:58:39;;;;;;;29.65;17.30;;;8.60;99.90;;;;;;6179045;23;20017;-85
2022/03/15 03:01:05;;;;;;;26.50;17.17;;;8.60;99.90;;;;;;6131859;23;20005;-85
2022/03/15 03:03:31;;;;;;;28.20;17.65;;;8.60;99.90;;;;;;6159589;23;20020;-85
2022/03/15 03:05:56;;;;;;;32.42;17.80;;;8.60;99.90;;;;;;6158873;23;20443;-86
2022/03/15 03:08:25;;;;;;;30.40;17.38;;;8.60;99.90;;;;;;6159499;23;20005;-84
2022/03/15 03:10:52;;;;;;;26.88;16.52;;;8.60;99.90;;;;;;6158977;23;20084;-84
2022/03/15 03:13:18;;;;;;;30.08;17.98;;;8.60;99.90;;;;;;6184641;23;20032;-84
2022/03/15 03:15:44;;;;;;;27.23;17.85;;;8.60;99.90;;;;;;6184275;23;20005;-85
2022/03/15 03:18:10;;;;;;;27.33;17.73;;;8.60;99.90;;;;;;6159387;23;20087;-85
2022/03/15 03:20:36;;;;;;;25.08;17.77;;;8.60;99.90;;;;;;6135458;23;20036;-84
2022/03/15 03:23:01;;;;;;;27.13;16.48;;;8.50;99.90;;;;;;6169526;23;20394;-85
2022/03/15 03:25:28;;;;;;;28.02;16.45;;;8.50;99.90;;;;;;6181019;23;20016;-85
2022/03/15 03:27:54;;;;;;;31.17;17.00;;;8.50;99.90;;;;;;6157375;23;20009;-85
2022/03/15 03:30:19;;;;;;;24.77;17.90;;;8.50;99.90;;;;;;6155350;23;20075;-86
2022/03/15 03:32:45;;;;;;;33.28;18.95;;;8.50;99.90;;;;;;6178639;23;20336;-85
2022/03/15 03:35:11;;;;;;;30.38;16.95;;;8.50;99.90;;;;;;6179889;23;19985;-85
2022/03/15 03:37:37;;;;;;;28.80;16.30;;;8.50;99.90;;;;;;6147567;23;20017;-85
2022/03/15 03:40:07;;;;;;;24.40;16.40;;;8.50;99.90;;;;;;6141060;23;20016;-84
2022/03/15 03:42:34;;;;;;;25.35;16.05;;;8.40;99.90;;;;;;6160724;23;20012;-85
2022/03/15 03:45:00;;;;;;;31.25;17.52;;;8.40;99.90;;;;;;6134901;23;20001;-84
2022/03/15 03:47:26;;;;;;;28.73;17.33;;;8.40;99.90;;;;;;6184851;23;20175;-85
2022/03/15 03:49:52;;;;;;;26.23;16.92;;;8.40;99.90;;;;;;6139970;23;20001;-83
2022/03/15 03:52:18;;;;;;;27.23;16.98;;;8.40;99.90;;;;;;6172287;23;20028;-84
2022/03/15 03:54:44;;;;;;;26.73;17.13;;;8.40;99.90;;;;;;6135828;23;20017;-85
2022/03/15 03:57:10;;;;;;;28.02;17.48;;;8.30;99.90;;;;;;6159368;23;20009;-84
2022/03/15 03:59:36;;;;;;;26.23;17.10;;;8.30;99.90;;;;;;6159349;23;20008;-84
2022/03/15 04:02:02;;;;;;;25.25;16.45;;;8.30;99.90;;;;;;6133212;23;20071;-84
2022/03/15 04:04:28;;;;;;;24.70;17.30;;;8.30;99.90;;;;;;6133928;23;20001;-85
2022/03/15 04:06:55;;;;;;;28.48;16.83;;;8.30;99.90;;;;;;6184911;23;20143;-84
2022/03/15 04:09:20;;;;;;;29.15;17.27;;;8.30;99.90;;;;;;6184699;23;20011;-85
2022/03/15 04:11:46;;;;;;;27.80;17.38;;;8.40;99.90;;;;;;6158210;23;20059;-84
2022/03/15 04:14:12;;;;;;;25.45;16.45;;;8.30;99.90;;;;;;6159141;23;20011;-85
2022/03/15 04:16:39;;;;;;;29.17;17.48;;;8.30;99.90;;;;;;6133414;23;20088;-84
2022/03/15 04:19:05;;;;;;;26.67;16.90;;;8.30;99.90;;;;;;6158012;23;20425;-84
2022/03/15 04:21:30;;;;;;;27.58;16.90;;;8.30;99.90;;;;;;6132970;23;20135;-85
2022/03/15 04:23:57;;;;;;;25.95;16.45;;;8.30;99.90;;;;;;6133051;23;20210;-84
2022/03/15 04:26:24;;;;;;;27.20;16.48;;;8.30;99.90;;;;;;6133726;23;20008;-84
2022/03/15 04:28:51;;;;;;;29.05;17.30;;;8.30;99.90;;;;;;6133234;23;20109;-87
2022/03/15 04:31:17;;;;;;;23.50;15.02;;;8.30;99.90;;;;;;6134291;23;20009;-83
2022/03/15 04:33:42;;;;;;;23.15;16.20;;;8.30;99.90;;;;;;6158383;23;20383;-84
2022/03/15 04:36:09;;;;;;;32.08;17.55;;;8.30;99.90;;;;;;6133249;23;20419;-83
2022/03/15 04:38:35;;;;;;;26.60;16.10;;;8.30;99.90;;;;;;6133751;23;20435;-84
2022/03/15 04:41:01;;;;;;;23.63;15.13;;;8.30;99.90;;;;;;6133708;23;20040;-84
2022/03/15 04:43:28;;;;;;;27.83;15.90;;;8.20;99.90;;;;;;6157618;23;20138;-84
2022/03/15 04:45:53;;;;;;;24.90;15.50;;;8.30;99.90;;;;;;6133885;23;20332;-85
2022/03/15 04:48:23;;;;;;;27.45;15.57;;;8.20;99.90;;;;;;6158257;23;20011;-85
2022/03/15 04:50:49;;;;;;;23.17;15.65;;;8.20;99.90;;;;;;6134680;23;20005;-84
2022/03/15 04:53:15;;;;;;;26.17;15.27;;;8.20;99.90;;;;;;6158150;23;20001;-84
2022/03/15 04:55:42;;;;;;;22.63;15.18;;;8.20;99.90;;;;;;6158304;23;20003;-84
2022/03/15 04:58:08;;;;;;;23.02;15.27;;;8.20;99.90;;;;;;6158171;23;20430;-86
2022/03/15 05:00:34;;;;;;;23.70;15.55;;;8.20;99.90;;;;;;6133333;23;20001;-84
2022/03/15 05:02:59;;;;;;;26.55;15.38;;;8.20;99.90;;;;;;6160548;23;20440;-85
2022/03/15 05:05:25;;;;;;;21.45;15.15;;;8.20;99.90;;;;;;6128122;23;20013;-85
2022/03/15 05:07:51;;;;;;;23.10;14.52;;;8.20;99.90;;;;;;6128656;23;20005;-86
2022/03/15 05:13:01;;;;;;;25.20;15.25;;;8.20;99.90;;;;;;6110794;23;20093;-85
2022/03/15 05:15:27;;;;;;;20.85;14.50;;;8.10;99.90;;;;;;6103863;23;20446;-85
2022/03/15 05:17:53;;;;;;;28.00;14.93;;;8.10;99.90;;;;;;6128638;23;20451;-85
2022/03/15 05:20:19;;;;;;;22.58;14.85;;;8.10;99.90;;;;;;6128551;23;20002;-86
2022/03/15 05:22:45;;;;;;;22.80;14.65;;;8.10;99.90;;;;;;6128251;23;20106;-85
2022/03/15 05:25:13;;;;;;;24.23;15.18;;;8.10;99.90;;;;;;6128026;23;20067;-86
2022/03/15 05:27:40;;;;;;;25.02;14.65;;;8.10;99.90;;;;;;6154643;23;20001;-85
2022/03/15 05:30:07;;;;;;;22.10;15.23;;;8.10;99.90;;;;;;6129182;23;20454;-85
2022/03/15 05:32:33;;;;;;;25.23;15.00;;;8.10;99.90;;;;;;6128597;23;20116;-85
2022/03/15 05:34:59;;;;;;;25.33;16.05;;;8.10;99.90;;;;;;6154019;23;20053;-85
2022/03/15 05:37:25;;;;;;;23.52;15.63;;;8.10;99.90;;;;;;6104036;23;20435;-85
2022/03/15 05:39:51;;;;;;;25.05;15.50;;;8.10;99.90;;;;;;6128340;23;20001;-85
2022/03/15 05:42:19;;;;;;;26.17;15.88;;;8.10;99.90;;;;;;6127970;23;20017;-86
2022/03/15 05:44:45;;;;;;;25.50;15.73;;;8.10;99.90;;;;;;6128133;23;20006;-85
2022/03/15 05:47:11;;;;;;;21.95;15.02;;;8.10;99.90;;;;;;6128220;23;20455;-85
2022/03/15 05:49:37;;;;;;;25.52;16.27;;;8.10;99.90;;;;;;6129442;23;20014;-84
2022/03/15 05:52:03;;;;;;;27.10;16.05;;;8.10;99.90;;;;;;6079406;23;20420;-85
2022/03/15 05:54:32;;;;;;;27.35;16.80;;;8.10;99.90;;;;;;6127572;23;20088;-85
2022/03/15 05:56:58;;;;;;;23.98;15.90;;;8.10;99.90;;;;;;6105852;23;20013;-85
2022/03/15 05:59:24;;;;;;;26.10;16.40;;;8.00;99.90;;;;;;6106056;23;20008;-85
2022/03/15 06:01:49;;;;;;;27.35;16.98;;;8.00;99.90;;;;;;6132354;23;20073;-85
2022/03/15 06:04:15;;;;;;;25.98;16.38;;;8.00;99.90;;;;;;6106059;23;20013;-85
2022/03/15 06:06:40;;;;;;;23.00;15.45;;;8.00;99.90;;;;;;6106679;23;20001;-86
2022/03/15 06:09:06;;;;;;;31.67;16.58;;;8.00;99.90;;;;;;6130628;23;20005;-86
2022/03/15 06:11:32;;;;;;;25.60;16.05;;;8.00;99.90;;;;;;6145219;23;20002;-85
2022/03/15 06:14:01;;;;;;;25.33;16.00;;;8.00;99.90;;;;;;6131379;23;20001;-86
2022/03/15 06:16:27;;;;;;;31.75;17.83;;;8.00;99.90;;;;;;6105736;23;20005;-86
2022/03/15 06:18:53;;;;;;;25.98;16.10;;;8.00;99.90;;;;;;6106451;23;20018;-86
2022/03/15 06:21:19;;;;;;;22.85;15.55;;;8.00;99.90;;;;;;6143316;23;20008;-85
2022/03/15 06:23:45;;;;;;;24.38;15.65;;;8.00;99.90;;;;;;6083149;23;20493;-86
2022/03/15 06:26:11;;;;;;;23.30;16.08;;;8.00;99.90;;;;;;6128650;23;20006;-85
2022/03/15 06:28:37;;;;;;;25.45;15.50;;;8.00;99.90;;;;;;6129379;23;20393;-85
2022/03/15 06:31:04;;;;;;;26.77;16.40;;;8.00;99.90;;;;;;6129156;23;20446;-85
2022/03/15 06:33:30;;;;;;;27.38;17.02;;;8.00;99.90;;;;;;6105823;23;20005;-85
2022/03/15 06:35:56;;;;;;;28.02;17.25;;;8.00;99.90;;;;;;6155689;23;20051;-85
2022/03/15 06:38:22;;;;;;;27.70;15.90;;;8.00;99.90;;;;;;6155651;23;20017;-85
2022/03/15 06:40:48;;;;;;;27.02;16.08;;;8.00;99.90;;;;;;6130085;23;20033;-85
2022/03/15 06:43:14;;;;;;;24.80;16.75;;;8.00;99.90;;;;;;6153900;23;20053;-86
2022/03/15 06:45:44;;;;;;;29.55;16.10;;;8.00;99.90;;;;;;6130004;23;20002;-85
2022/03/15 06:48:10;;;;;;;24.17;16.25;;;8.00;99.90;;;;;;6106937;23;20065;-85
2022/03/15 06:50:36;;;;;;;24.67;15.25;;;8.00;99.90;;;;;;6130296;23;20009;-86
2022/03/15 06:53:02;;;;;;;23.08;15.45;;;8.00;99.90;;;;;;6132711;23;20010;-84
2022/03/15 06:55:29;;;;;;;22.13;14.45;;;8.00;99.90;;;;;;6130704;23;20013;-84
2022/03/15 06:57:55;;;;;;;23.52;15.85;;;8.00;99.90;;;;;;6082558;23;20518;-85
2022/03/15 07:00:21;;;;;;;24.75;15.43;;;8.00;99.90;;;;;;6156365;23;19998;-85
2022/03/15 07:02:47;;;;;;;25.80;16.55;;;8.00;99.90;;;;;;6119982;23;20021;-85
2022/03/15 07:05:13;;;;;;;24.63;15.80;;;8.00;99.90;;;;;;6111021;23;20071;-86
2022/03/15 07:07:38;;;;;;;25.70;15.52;;;8.00;99.90;;;;;;6126272;23;20014;-86
2022/03/15 07:10:06;;;;;;;21.67;15.43;;;8.00;99.90;;;;;;6128402;23;20021;-84
2022/03/15 07:12:32;;;;;;;27.23;15.68;;;8.00;99.90;;;;;;6155211;23;20014;-87
2022/03/15 07:15:00;;;;;;;26.92;17.20;;;8.00;99.90;;;;;;6128554;23;20017;-86
2022/03/15 07:17:26;;;;;;;21.02;14.38;;;8.00;99.90;;;;;;6175454;23;20415;-85
2022/03/15 07:19:52;;;;;;;25.33;14.75;;;8.10;99.90;;;;;;6174736;23;20005;-86
2022/03/15 07:22:18;;;;;;;25.23;15.85;;;8.00;99.90;;;;;;6144332;23;20006;-86
2022/03/15 07:24:44;;;;;;;27.65;15.20;;;8.10;99.90;;;;;;6163475;23;19997;-85
2022/03/15 07:27:09;;;;;;;20.50;14.00;;;8.00;99.90;;;;;;6133618;23;20021;-85
2022/03/15 07:29:35;;;;;;;18.05;13.93;;;8.10;99.90;;;;;;6107678;23;20332;-84
2022/03/15 07:32:01;;;;;;;28.95;14.35;;;8.10;99.90;;;;;;6131698;23;20009;-85
2022/03/15 07:34:27;;;;;;;22.95;13.75;;;8.10;99.90;;;;;;6131994;23;20005;-85
2022/03/15 07:36:53;;;;;;;20.30;14.73;;;8.10;99.90;;;;;;6108881;23;20040;-85
2022/03/15 07:39:20;;;;;;;24.70;14.63;;;8.10;99.90;;;;;;6134163;23;20056;-85
2022/03/15 07:41:47;;;;;;;28.27;14.70;;;8.10;99.90;;;;;;6137354;23;20012;-85
2022/03/15 07:44:19;;;;;;;22.23;13.77;;;8.20;99.90;;;;;;6109820;23;20053;-86
2022/03/15 07:46:50;;;;;;;23.40;14.88;;;8.20;99.90;;;;;;6110000;23;20023;-84
2022/03/15 07:49:26;;;;;;;21.43;14.03;;;8.20;99.90;;;;;;6133628;23;20002;-88
2022/03/15 07:51:51;;;;;;;25.63;14.38;;;8.20;99.90;;;;;;6104890;23;20014;-86
2022/03/15 07:54:18;;;;;;;25.67;14.15;;;8.20;99.90;;;;;;6106348;23;20100;-84
2022/03/15 07:56:44;;;;;;;22.08;14.00;;;8.20;99.90;;;;;;6107268;23;20016;-83
2022/03/15 07:59:10;;;;;;;24.02;14.30;;;8.20;99.90;;;;;;6129243;23;19998;-84
2022/03/15 08:01:37;;;;;;;25.83;14.00;;;8.30;99.90;;;;;;6106137;23;20017;-85
2022/03/15 08:04:03;;;;;;;22.67;13.95;;;8.30;99.90;;;;;;6154387;23;20021;-85
2022/03/15 08:06:30;;;;;;;19.83;13.13;;;8.30;99.90;;;;;;6158076;23;20116;-85
2022/03/15 08:08:58;;;;;;;19.75;14.00;;;8.30;99.90;;;;;;6159888;23;20005;-84
2022/03/15 08:11:25;;;;;;;20.15;13.68;;;8.30;99.90;;;;;;6111317;23;20009;-84
2022/03/15 08:13:54;;;;;;;18.85;13.38;;;8.40;99.90;;;;;;6158733;23;20001;-84
2022/03/15 08:16:21;;;;;;;20.70;13.38;;;8.40;99.90;;;;;;6158351;23;20052;-84
2022/03/15 08:18:48;;;;;;;22.23;13.80;;;8.40;99.90;;;;;;6185262;23;20009;-85
2022/03/15 08:21:13;;;;;;;22.23;12.45;;;8.40;99.90;;;;;;6111131;23;20357;-84
2022/03/15 08:23:39;;;;;;;24.00;13.25;;;8.40;99.90;;;;;;6110790;23;20001;-85
2022/03/15 08:26:05;;;;;;;20.13;13.05;;;8.40;99.90;;;;;;6186225;23;20051;-84
2022/03/15 08:28:31;;;;;;;19.75;12.85;;;8.40;99.90;;;;;;6134603;23;20013;-85
2022/03/15 08:30:58;;;;;;;20.38;12.10;;;8.50;99.90;;;;;;6159654;23;20080;-83
2022/03/15 08:33:24;;;;;;;19.90;12.27;;;8.50;99.90;;;;;;6173821;23;20012;-85
2022/03/15 08:35:49;;;;;;;22.13;12.88;;;8.50;99.90;;;;;;6135391;23;20323;-87
2022/03/15 08:38:15;;;;;;;18.73;12.07;;;8.50;99.90;;;;;;6133956;23;20013;-88
2022/03/15 08:40:41;;;;;;;24.45;11.48;;;8.50;99.90;;;;;;6134651;23;20012;-84
2022/03/15 08:43:07;;;;;;;19.17;10.88;;;8.60;99.90;;;;;;6159377;23;20056;-84
2022/03/15 08:45:34;;;;;;;29.48;13.20;;;8.60;99.90;;;;;;6159739;23;20010;-85
2022/03/15 08:47:59;;;;;;;18.73;11.55;;;8.60;99.90;;;;;;6159730;23;20070;-85
2022/03/15 08:50:25;;;;;;;18.80;11.65;;;8.60;99.90;;;;;;6134162;23;20057;-85
2022/03/15 08:52:51;;;;;;;17.90;11.65;;;8.60;99.90;;;;;;6158970;23;20423;-84
2022/03/15 08:55:16;;;;;;;16.20;10.48;;;8.60;99.90;;;;;;6159093;23;20037;-84
2022/03/15 08:57:42;;;;;;;17.80;11.20;;;8.70;99.90;;;;;;6158398;23;20325;-85
2022/03/15 09:00:10;;;;;;;20.15;11.45;;;8.70;99.90;;;;;;6159173;23;20009;-86
2022/03/15 09:02:38;;;;;;;16.65;10.80;;;8.70;99.90;;;;;;6149727;23;20511;-83
2022/03/15 09:05:05;;;;;;;17.27;10.35;;;8.70;99.90;;;;;;6105360;23;20014;-83
2022/03/15 09:07:30;;;;;;;22.23;11.73;;;8.80;99.90;;;;;;6105318;23;20013;-84
2022/03/15 09:09:57;;;;;;;23.95;11.13;;;8.80;99.90;;;;;;6109204;23;20025;-84
2022/03/15 09:12:23;;;;;;;18.92;11.45;;;8.90;99.90;;;;;;6137862;23;20040;-85
2022/03/15 09:14:48;;;;;;;19.27;11.55;;;8.90;99.90;;;;;;6147276;23;20010;-85
2022/03/15 09:17:15;;;;;;;21.88;12.20;;;8.90;99.90;;;;;;6149341;23;20013;-84
2022/03/15 09:19:41;;;;;;;18.45;10.82;;;9.00;99.90;;;;;;6113069;23;20016;-84
2022/03/15 09:22:07;;;;;;;17.33;10.27;;;9.00;99.90;;;;;;6168408;23;20057;-84
2022/03/15 09:24:35;;;;;;;15.60;9.80;;;9.10;99.90;;;;;;6175106;23;19997;-85
2022/03/15 09:27:02;;;;;;;16.15;9.90;;;9.10;99.90;;;;;;6133788;23;20084;-83
2022/03/15 09:29:28;;;;;;;18.15;10.10;;;9.10;99.90;;;;;;6129567;23;20069;-86
2022/03/15 09:31:53;;;;;;;18.52;10.40;;;9.10;99.90;;;;;;6129504;23;20013;-83
2022/03/15 09:34:21;;;;;;;19.13;10.55;;;9.20;99.90;;;;;;6129380;23;20013;-82
2022/03/15 09:36:47;;;;;;;16.60;10.07;;;9.20;99.90;;;;;;6129862;23;20014;-85
2022/03/15 09:39:13;;;;;;;15.07;10.07;;;9.20;99.90;;;;;;6129998;23;20432;-85
2022/03/15 09:41:40;;;;;;;17.80;10.18;;;9.30;99.90;;;;;;6130650;23;20002;-85
2022/03/15 09:44:10;;;;;;;16.80;10.70;;;9.30;99.90;;;;;;6129608;23;20415;-86
2022/03/15 09:46:47;;;;;;;17.08;10.60;;;9.30;99.90;;;;;;6155572;23;19998;-86
2022/03/15 09:49:16;;;;;;;18.25;10.40;;;9.30;99.90;;;;;;6129864;23;20057;-86
2022/03/15 09:51:42;;;;;;;16.10;9.65;;;9.30;99.90;;;;;;6155525;23;20371;-85
2022/03/15 09:54:08;;;;;;;16.15;9.43;;;9.30;99.90;;;;;;6155521;23;20029;-87
2022/03/15 09:56:38;;;;;;;16.08;8.68;;;9.40;99.90;;;;;;6105211;23;20313;-86
2022/03/15 09:59:14;;;;;;;13.33;8.00;;;9.40;99.90;;;;;;6105716;23;20014;-85
2022/03/15 10:01:42;;;;;;;11.60;7.60;;;9.40;99.90;;;;;;6128883;23;20032;-84
2022/03/15 10:04:08;;;;;;;16.05;8.60;;;9.40;99.90;;;;;;6155547;23;20014;-85
2022/03/15 10:06:35;;;;;;;14.55;8.23;;;9.50;99.90;;;;;;6129294;23;20057;-83
2022/03/15 10:09:01;;;;;;;13.50;8.25;;;9.50;99.90;;;;;;6129661;23;20088;-83
2022/03/15 10:11:27;;;;;;;15.88;8.63;;;9.60;99.90;;;;;;6105249;23;20040;-83
2022/03/15 10:13:52;;;;;;;14.32;8.35;;;9.60;99.90;;;;;;6129836;23;20010;-83
2022/03/15 10:16:18;;;;;;;14.48;9.00;;;9.70;99.90;;;;;;6129604;23;20324;-84
2022/03/15 10:18:55;;;;;;;17.58;7.90;;;9.70;99.90;;;;;;6105107;23;20009;-84
2022/03/15 10:21:24;;;;;;;15.10;9.02;;;9.70;99.90;;;;;;6105780;23;20012;-84
2022/03/15 10:23:52;;;;;;;18.17;8.55;;;9.80;99.90;;;;;;6130390;23;20439;-84
2022/03/15 10:26:25;;;;;;;17.17;8.38;;;9.80;99.90;;;;;;6153710;23;20089;-84
2022/03/15 10:28:56;;;;;;;13.95;7.75;;;9.80;99.90;;;;;;6155749;23;20009;-85
2022/03/15 10:31:25;;;;;;;13.50;6.75;;;9.90;99.90;;;;;;6129768;23;20009;-83
2022/03/15 10:33:54;;;;;;;14.55;8.15;;;9.90;99.90;;;;;;6129535;23;20009;-85
2022/03/15 10:36:21;;;;;;;14.05;7.38;;;9.90;99.90;;;;;;6105303;23;20085;-84
2022/03/15 10:38:52;;;;;;;13.98;6.75;;;9.90;99.90;;;;;;6129556;23;20104;-83
2022/03/15 10:41:19;;;;;;;15.15;7.30;;;10.00;99.90;;;;;;6130112;23;20009;-83
2022/03/15 10:43:53;;;;;;;15.95;8.02;;;10.00;99.90;;;;;;6131263;23;20002;-84
2022/03/15 10:46:23;;;;;;;16.05;6.88;;;10.10;99.90;;;;;;6131786;23;20001;-83
2022/03/15 10:48:59;;;;;;;13.45;6.97;;;10.10;99.90;;;;;;6132998;23;20029;-84
2022/03/15 10:51:25;;;;;;;14.32;7.63;;;10.10;99.90;;;;;;6175581;23;19997;-84
2022/03/15 10:54:00;;;;;;;12.95;6.43;;;10.10;99.90;;;;;;6155002;23;20014;-84
2022/03/15 10:56:26;;;;;;;12.15;6.00;;;10.20;99.90;;;;;;6160680;23;20038;-83
2022/03/15 10:58:53;;;;;;;14.75;6.55;;;10.20;99.90;;;;;;6156088;23;20001;-83
2022/03/15 11:01:24;;;;;;;15.48;6.93;;;10.20;99.90;;;;;;6151926;23;20412;-84
2022/03/15 11:04:07;;;;;;;11.40;6.88;;;10.20;99.90;;;;;;6150808;23;20014;-84
2022/03/15 11:06:38;;;;;;;16.98;6.85;;;10.20;99.90;;;;;;6173036;23;20009;-83
2022/03/15 11:09:20;;;;;;;11.52;6.38;;;10.30;99.90;;;;;;6161184;23;20009;-83
2022/03/15 11:11:51;;;;;;;15.95;7.13;;;10.30;99.90;;;;;;6131349;23;20076;-84
2022/03/15 11:14:28;;;;;;;;;;;10.20;99.90;;;;;;6130969;23;20010;-85
2022/03/15 11:16:55;;;;;;;11.00;5.93;;;10.30;99.60;;;;;;6155882;23;19947;-84
2022/03/15 11:19:21;;;;;;;13.65;7.00;;;10.20;99.80;;;;;;6106117;23;20535;-83
2022/03/15 11:21:47;;;;;;;10.48;6.13;;;10.30;99.90;;;;;;6156275;23;20010;-85
2022/03/15 11:24:21;;;;;;;16.60;7.35;;;10.30;99.50;;;;;;6132224;23;20079;-84
2022/03/15 11:26:47;;;;;;;14.13;6.22;;;10.40;99.70;;;;;;6131931;23;20006;-84
2022/03/15 11:29:18;;;;;;;13.25;6.10;;;10.40;99.60;;;;;;6134969;23;20033;-83
2022/03/15 11:31:44;;;;;;;13.73;6.35;;;10.40;99.70;;;;;;6130394;23;20002;-87
2022/03/15 11:34:10;;;;;;;10.52;6.53;;;10.50;99.80;;;;;;6104994;23;20009;-84
2022/03/15 11:36:36;;;;;;;14.93;6.78;;;10.50;99.70;;;;;;6107247;23;20336;-80
2022/03/15 11:39:02;;;;;;;15.10;7.45;;;10.50;99.70;;;;;;6157847;23;20145;-85
2022/03/15 11:41:29;;;;;;;10.25;6.50;;;10.50;99.60;;;;;;6132467;23;20011;-84
2022/03/15 11:44:09;;;;;;;15.30;6.38;;;10.60;99.20;;;;;;6130623;23;20491;-84
2022/03/15 11:46:43;;;;;;;11.63;6.03;;;10.60;99.10;;;;;;6156912;23;19997;-84
2022/03/15 11:49:42;;;;;;;13.18;6.68;;;10.60;99.10;;;;;;6130697;23;20012;-84
2022/03/15 11:52:33;;;;;;;14.57;6.97;;;10.60;98.60;;;;;;6130900;23;20334;-83
2022/03/15 11:55:08;;;;;;;17.92;6.95;;;10.60;98.90;;;;;;6156482;23;20005;-84
2022/03/15 11:57:41;;;;;;;11.73;6.40;;;10.70;99.00;;;;;;6156628;23;20010;-84
2022/03/15 12:00:08;;;;;;;14.85;6.63;;;10.70;99.00;;;;;;6156348;23;20360;-84
2022/03/15 12:02:39;;;;;;;13.55;6.90;;;10.70;98.90;;;;;;6130264;23;20005;-84
2022/03/15 12:05:20;;;;;;;13.52;6.70;;;10.80;98.90;;;;;;6156799;23;20146;-84
2022/03/15 12:07:47;;;;;;;;;;;10.80;98.80;;;;;;6106582;23;20009;-85
2022/03/15 12:10:29;;;;;;;13.32;6.78;;;10.80;98.90;;;;;;6156248;23;19904;-83
2022/03/15 12:13:02;;;;;;;15.07;7.25;;;10.80;98.80;;;;;;6106686;23;20002;-83
2022/03/15 12:15:38;;;;;;;14.48;7.30;;;10.90;98.80;;;;;;6160633;23;20427;-85
2022/03/15 12:21:08;;;;;;;18.85;7.50;;;10.90;98.80;;;;;;6156260;23;20002;-84
2022/03/15 12:23:45;;;;;;;15.93;6.90;;;11.00;98.80;;;;;;6156406;23;19998;-83
2022/03/15 12:26:21;;;;;;;13.90;6.88;;;11.00;98.60;;;;;;6106430;23;20191;-85
2022/03/15 12:29:06;;;;;;;18.27;7.80;;;11.00;98.50;;;;;;6130102;23;20227;-84
2022/03/15 12:31:34;;;;;;;11.93;6.63;;;11.00;98.50;;;;;;6156365;23;20117;-84
2022/03/15 12:34:02;;;;;;;15.35;6.90;;;11.10;98.60;;;;;;6130407;23;19997;-85
2022/03/15 12:36:40;;;;;;;18.60;8.50;;;11.10;98.70;;;;;;6120213;23;20021;-85
2022/03/15 12:39:11;;;;;;;12.98;7.18;;;11.20;98.80;;;;;;6176197;23;20010;-85
2022/03/15 12:41:36;;;;;;;;;;;11.20;98.80;;;;;;6150563;23;20369;-84
2022/03/15 12:44:02;;;;;;;15.48;8.10;;;11.20;98.80;;;;;;6169419;23;19929;-84